createdAt,value
2023-03-27T00:00:13.225Z,99.90
2023-03-27T00:02:41.794Z,99.90
2023-03-27T00:05:11.265Z,99.90
2023-03-27T00:07:41.327Z,99.90
2023-03-27T00:10:10.333Z,99.90
2023-03-27T00:12:39.126Z,99.90
2023-03-27T00:15:09.780Z,99.90
2023-03-27T00:17:38.103Z,99.90
2023-03-27T00:20:07.049Z,99.90
2023-03-27T00:22:36.002Z,99.90
2023-03-27T00:25:04.278Z,99.90
2023-03-27T00:27:33.175Z,99.90
2023-03-27T00:30:01.198Z,99.90
2023-03-27T00:32:30.733Z,99.90
2023-03-27T00:35:00.199Z,99.90
2023-03-27T00:37:28.217Z,99.90
2023-03-27T00:39:56.623Z,99.90
2023-03-27T00:42:27.172Z,99.90
2023-03-27T00:44:55.471Z,99.90
2023-03-27T00:47:33.008Z,99.90
2023-03-27T00:50:06.886Z,99.90
2023-03-27T00:52:37.111Z,99.90
2023-03-27T00:55:09.774Z,99.90
2023-03-27T00:57:38.229Z,99.90
2023-03-27T01:00:13.361Z,99.90
2023-03-27T01:02:42.779Z,99.90
2023-03-27T01:05:13.736Z,99.90
2023-03-27T01:07:42.118Z,99.90
2023-03-27T01:10:40.446Z,99.90
2023-03-27T01:13:22.724Z,99.90
2023-03-27T01:15:55.549Z,99.90
2023-03-27T01:18:36.103Z,99.90
2023-03-27T01:21:38.041Z,99.90
2023-03-27T01:24:32.750Z,99.90
2023-03-27T01:27:08.006Z,99.90
2023-03-27T01:29:46.878Z,99.90
2023-03-27T01:32:40.162Z,99.90
2023-03-27T01:35:29.580Z,99.90
2023-03-27T01:38:36.618Z,99.90
2023-03-27T01:41:10.975Z,99.90
2023-03-27T01:43:44.357Z,99.90
2023-03-27T01:46:19.443Z,99.90
2023-03-27T01:48:52.977Z,99.90
2023-03-27T01:51:24.471Z,99.90
2023-03-27T01:53:56.209Z,99.90
2023-03-27T01:56:32.754Z,99.90
2023-03-27T01:59:05.626Z,99.90
2023-03-27T02:01:38.520Z,99.90
2023-03-27T02:04:12.330Z,99.90
2023-03-27T02:06:43.986Z,99.90
2023-03-27T02:09:17.449Z,99.90
2023-03-27T02:11:53.988Z,99.90
2023-03-27T02:14:24.834Z,99.90
2023-03-27T02:16:56.609Z,99.90
2023-03-27T02:19:33.520Z,99.90
2023-03-27T02:22:01.686Z,99.90
2023-03-27T02:24:29.665Z,99.90
2023-03-27T02:27:06.072Z,99.90
2023-03-27T02:29:46.489Z,99.90
2023-03-27T02:32:26.754Z,99.90
2023-03-27T02:35:12.951Z,99.90
2023-03-27T02:37:50.902Z,99.90
2023-03-27T02:40:29.136Z,99.90
2023-03-27T02:43:06.616Z,99.90
2023-03-27T02:45:43.987Z,99.90
2023-03-27T02:48:18.507Z,99.90
2023-03-27T02:50:51.712Z,99.90
2023-03-27T02:53:23.758Z,99.90
2023-03-27T02:55:55.801Z,99.90
2023-03-27T02:58:32.251Z,99.90
2023-03-27T03:01:02.213Z,99.90
2023-03-27T03:03:36.049Z,99.90
2023-03-27T03:06:07.146Z,99.90
2023-03-27T03:08:38.246Z,99.90
2023-03-27T03:11:08.915Z,99.90
2023-03-27T03:13:38.865Z,99.90
2023-03-27T03:16:08.781Z,99.90
2023-03-27T03:18:37.062Z,99.90
2023-03-27T03:21:05.750Z,99.90
2023-03-27T03:23:34.048Z,99.90
2023-03-27T03:26:03.116Z,99.90
2023-03-27T03:28:31.207Z,99.90
2023-03-27T03:31:02.781Z,99.90
2023-03-27T03:33:31.114Z,99.90
2023-03-27T03:36:00.825Z,99.90
2023-03-27T03:38:37.815Z,99.90
2023-03-27T03:41:07.056Z,99.90
2023-03-27T03:43:35.220Z,99.90
2023-03-27T03:46:05.053Z,99.90
2023-03-27T03:48:33.041Z,99.90
2023-03-27T03:51:01.139Z,99.90
2023-03-27T03:53:29.242Z,99.90
2023-03-27T03:55:57.575Z,99.90
2023-03-27T03:58:34.555Z,99.90
2023-03-27T04:01:04.810Z,99.90
2023-03-27T04:03:34.057Z,99.90
2023-03-27T04:06:05.323Z,99.90
2023-03-27T04:08:34.523Z,99.90
2023-03-27T04:11:02.552Z,99.90
2023-03-27T04:13:30.780Z,99.90
2023-03-27T04:16:01.623Z,99.90
2023-03-27T04:18:33.082Z,99.90
2023-03-27T04:21:01.533Z,99.90
2023-03-27T04:23:31.254Z,99.90
2023-03-27T04:26:00.942Z,99.90
2023-03-27T04:28:30.379Z,99.90
2023-03-27T04:30:58.860Z,99.90
2023-03-27T04:33:30.741Z,99.90
2023-03-27T04:36:05.967Z,99.90
2023-03-27T04:38:36.920Z,99.90
2023-03-27T04:41:05.464Z,99.90
2023-03-27T04:43:36.626Z,99.90
2023-03-27T04:46:05.945Z,99.90
2023-03-27T04:48:34.230Z,99.90
2023-03-27T04:51:03.623Z,99.90
2023-03-27T04:53:32.369Z,99.90
2023-03-27T04:56:01.269Z,99.90
2023-03-27T04:58:29.422Z,99.90
2023-03-27T05:00:57.903Z,99.90
2023-03-27T05:03:28.328Z,99.90
2023-03-27T05:05:56.603Z,99.90
2023-03-27T05:08:26.331Z,99.90
2023-03-27T05:10:54.597Z,99.90
2023-03-27T05:13:22.847Z,99.90
2023-03-27T05:15:50.935Z,99.90
2023-03-27T05:18:19.064Z,99.90
2023-03-27T05:20:49.613Z,99.90
2023-03-27T05:23:17.770Z,99.90
2023-03-27T05:26:00.195Z,99.90
2023-03-27T05:28:29.345Z,99.90
2023-03-27T05:30:58.431Z,99.90
2023-03-27T05:33:27.104Z,99.90
2023-03-27T05:35:55.257Z,99.90
2023-03-27T05:38:24.618Z,99.90
2023-03-27T05:40:54.354Z,99.90
2023-03-27T05:43:22.711Z,99.90
2023-03-27T05:45:50.840Z,99.90
2023-03-27T05:48:18.900Z,99.90
2023-03-27T05:50:47.449Z,99.90
2023-03-27T05:53:15.838Z,99.90
2023-03-27T05:55:43.954Z,99.90
2023-03-27T05:58:13.688Z,99.90
2023-03-27T06:00:43.174Z,99.90
2023-03-27T06:03:13.153Z,99.90
2023-03-27T06:05:41.897Z,99.90
2023-03-27T06:08:11.685Z,99.90
2023-03-27T06:10:43.305Z,99.90
2023-03-27T06:13:14.742Z,99.90
2023-03-27T06:15:44.097Z,99.90
2023-03-27T06:18:12.724Z,99.90
2023-03-27T06:20:42.414Z,99.90
2023-03-27T06:23:10.460Z,99.90
2023-03-27T06:25:40.067Z,99.90
2023-03-27T06:28:09.714Z,99.90
2023-03-27T06:30:39.459Z,99.90
2023-03-27T06:33:08.822Z,99.90
2023-03-27T06:35:37.539Z,99.90
2023-03-27T06:38:06.541Z,99.90
2023-03-27T06:40:36.520Z,99.90
2023-03-27T06:43:06.951Z,99.90
2023-03-27T06:45:38.106Z,99.90
2023-03-27T06:48:15.308Z,99.90
2023-03-27T06:50:46.648Z,99.90
2023-03-27T06:53:26.618Z,99.90
2023-03-27T06:55:57.139Z,99.90
2023-03-27T06:58:25.640Z,99.90
2023-03-27T07:00:53.698Z,99.90
2023-03-27T07:03:24.046Z,99.90
2023-03-27T07:05:52.307Z,99.90
2023-03-27T07:08:24.997Z,99.90
2023-03-27T07:11:09.843Z,99.90
2023-03-27T07:13:38.869Z,99.90
2023-03-27T07:16:08.049Z,99.90
2023-03-27T07:18:37.800Z,99.90
2023-03-27T07:21:08.330Z,99.90
2023-03-27T07:23:36.752Z,99.90
2023-03-27T07:26:05.125Z,99.90
2023-03-27T07:28:33.270Z,99.90
2023-03-27T07:31:01.423Z,99.90
2023-03-27T07:33:29.595Z,99.90
2023-03-27T07:35:59.297Z,99.90
2023-03-27T07:38:27.758Z,99.90
2023-03-27T07:40:57.644Z,99.90
2023-03-27T07:43:25.757Z,99.90
2023-03-27T07:45:53.923Z,99.90
2023-03-27T07:48:22.249Z,99.90
2023-03-27T07:50:51.856Z,99.90
2023-03-27T07:53:33.788Z,99.90
2023-03-27T07:56:03.816Z,99.90
2023-03-27T07:58:32.135Z,99.90
2023-03-27T08:01:02.277Z,99.90
2023-03-27T08:03:31.475Z,99.90
2023-03-27T08:06:01.116Z,99.90
2023-03-27T08:08:30.815Z,99.90
2023-03-27T08:11:01.860Z,99.90
2023-03-27T08:13:30.383Z,99.90
2023-03-27T08:16:07.009Z,99.90
2023-03-27T08:18:36.490Z,99.90
2023-03-27T08:21:05.837Z,99.90
2023-03-27T08:23:36.220Z,99.90
2023-03-27T08:26:05.606Z,99.90
2023-03-27T08:28:34.804Z,99.90
2023-03-27T08:31:09.188Z,99.90
2023-03-27T08:33:37.273Z,99.70
2023-03-27T08:36:06.778Z,97.60
2023-03-27T08:38:39.336Z,95.90
2023-03-27T08:41:09.333Z,96.10
2023-03-27T08:43:41.156Z,95.90
2023-03-27T08:46:17.690Z,96.70
2023-03-27T08:48:49.839Z,96.30
2023-03-27T08:51:21.106Z,96.70
2023-03-27T08:53:57.455Z,96.40
2023-03-27T08:56:27.041Z,97.10
2023-03-27T08:58:55.760Z,96.10
2023-03-27T09:01:29.494Z,96.40
2023-03-27T09:04:05.390Z,96.00
2023-03-27T09:06:40.294Z,96.70
2023-03-27T09:09:19.925Z,96.70
2023-03-27T09:11:58.293Z,95.50
2023-03-27T09:14:32.346Z,95.30
2023-03-27T09:17:07.072Z,93.10
2023-03-27T09:19:44.010Z,94.30
2023-03-27T09:22:18.731Z,94.00
2023-03-27T09:24:51.805Z,93.00
2023-03-27T09:27:24.950Z,92.50
2023-03-27T09:30:05.850Z,92.30
2023-03-27T09:32:35.129Z,91.50
2023-03-27T09:35:04.601Z,91.30
2023-03-27T09:37:34.549Z,91.20
2023-03-27T09:40:12.919Z,91.70
2023-03-27T09:42:43.422Z,92.60
2023-03-27T09:45:13.875Z,93.60
2023-03-27T09:47:46.700Z,94.20
2023-03-27T09:50:27.778Z,94.40
2023-03-27T09:53:09.382Z,93.80
2023-03-27T09:55:52.943Z,94.70
2023-03-27T09:58:31.344Z,91.70
2023-03-27T10:01:13.390Z,90.40
2023-03-27T10:03:44.347Z,90.10
2023-03-27T10:06:16.547Z,88.30
2023-03-27T10:08:50.367Z,89.20
2023-03-27T10:11:24.146Z,88.90
2023-03-27T10:13:53.166Z,86.10
2023-03-27T10:16:23.399Z,82.20
2023-03-27T10:18:55.701Z,80.30
2023-03-27T10:21:29.924Z,82.20
2023-03-27T10:24:04.181Z,81.20
2023-03-27T10:26:37.938Z,80.60
2023-03-27T10:29:23.181Z,78.10
2023-03-27T10:31:55.250Z,76.90
2023-03-27T10:34:33.501Z,73.60
2023-03-27T10:37:03.322Z,72.20
2023-03-27T10:39:35.900Z,68.50
2023-03-27T10:42:09.001Z,71.00
2023-03-27T10:44:38.740Z,76.30
2023-03-27T10:47:16.127Z,75.50
2023-03-27T10:49:48.225Z,74.80
2023-03-27T10:52:22.950Z,76.30
2023-03-27T10:55:03.008Z,78.10
2023-03-27T10:57:34.595Z,75.90
2023-03-27T11:00:11.896Z,74.50
2023-03-27T11:02:45.856Z,72.90
2023-03-27T11:05:18.830Z,73.00
2023-03-27T11:07:51.395Z,70.60
2023-03-27T11:10:23.496Z,70.10
2023-03-27T11:12:57.085Z,70.90
2023-03-27T11:15:30.045Z,73.20
2023-03-27T11:18:01.933Z,75.60
2023-03-27T11:20:34.700Z,76.30
2023-03-27T11:23:10.126Z,76.70
2023-03-27T11:25:43.305Z,74.20
2023-03-27T11:28:20.884Z,76.60
2023-03-27T11:30:53.298Z,77.10
2023-03-27T11:33:36.287Z,78.10
2023-03-27T11:36:17.660Z,77.40
2023-03-27T11:38:51.340Z,76.10
2023-03-27T11:41:19.538Z,75.60
2023-03-27T11:43:48.996Z,76.40
2023-03-27T11:46:34.123Z,77.10
2023-03-27T11:49:23.669Z,76.30
2023-03-27T11:52:05.241Z,73.70
2023-03-27T11:54:54.206Z,73.70
2023-03-27T11:57:24.351Z,73.70
2023-03-27T12:00:05.976Z,76.90
2023-03-27T12:02:55.179Z,76.20
2023-03-27T12:05:31.927Z,75.60
2023-03-27T12:08:07.991Z,76.30
2023-03-27T12:10:38.959Z,77.40
2023-03-27T12:13:41.855Z,86.30
2023-03-27T12:16:25.340Z,87.30
2023-03-27T12:19:08.063Z,91.70
2023-03-27T12:21:54.128Z,92.90
2023-03-27T12:24:34.138Z,94.60
2023-03-27T12:27:28.937Z,95.50
2023-03-27T12:30:17.948Z,96.10
2023-03-27T12:33:01.223Z,94.40
2023-03-27T12:35:32.943Z,94.30
2023-03-27T12:38:03.560Z,91.90
2023-03-27T12:40:33.761Z,90.80
2023-03-27T12:43:23.701Z,88.90
2023-03-27T12:46:15.168Z,86.60
2023-03-27T12:48:57.850Z,86.20
2023-03-27T12:51:44.627Z,80.00
2023-03-27T12:54:25.671Z,74.20
2023-03-27T12:57:05.098Z,73.40
2023-03-27T12:59:36.938Z,75.30
2023-03-27T13:02:41.636Z,77.50
2023-03-27T13:05:39.682Z,75.30
2023-03-27T13:08:38.692Z,74.40
2023-03-27T13:11:20.265Z,74.50
2023-03-27T13:14:22.333Z,75.10
2023-03-27T13:17:12.154Z,75.50
2023-03-27T13:19:51.686Z,77.30
2023-03-27T13:22:37.073Z,75.70
2023-03-27T13:25:22.131Z,75.90
2023-03-27T13:28:09.566Z,78.40
2023-03-27T13:30:44.064Z,76.00
2023-03-27T13:33:17.295Z,74.50
2023-03-27T13:36:02.718Z,72.80
2023-03-27T13:39:13.730Z,72.90
2023-03-27T13:42:05.979Z,76.10
2023-03-27T13:44:43.701Z,78.60
2023-03-27T13:47:48.150Z,77.40
2023-03-27T13:50:41.218Z,75.80
2023-03-27T13:53:25.248Z,76.40
2023-03-27T13:56:10.989Z,75.30
2023-03-27T13:58:56.916Z,74.40
2023-03-27T14:01:38.082Z,75.50
2023-03-27T14:04:27.561Z,77.50
2023-03-27T14:07:32.475Z,86.30
2023-03-27T14:10:24.051Z,91.70
2023-03-27T14:13:01.397Z,94.20
2023-03-27T14:15:52.111Z,96.10
2023-03-27T14:18:46.495Z,97.90
2023-03-27T14:21:31.452Z,98.90
2023-03-27T14:24:18.232Z,99.60
2023-03-27T14:26:46.540Z,99.90
2023-03-27T14:29:15.461Z,99.90
2023-03-27T14:31:45.251Z,99.90
2023-03-27T14:34:18.323Z,99.90
2023-03-27T14:36:48.552Z,99.90
2023-03-27T14:39:18.621Z,99.90
2023-03-27T14:41:47.971Z,99.90
2023-03-27T14:44:18.261Z,99.90
2023-03-27T14:46:48.919Z,99.90
2023-03-27T14:49:20.778Z,99.90
2023-03-27T14:51:54.076Z,99.90
2023-03-27T14:54:28.862Z,99.90
2023-03-27T14:57:00.575Z,99.90
2023-03-27T14:59:35.027Z,99.70
2023-03-27T15:02:07.902Z,99.10
2023-03-27T15:04:40.075Z,97.70
2023-03-27T15:07:18.480Z,97.00
2023-03-27T15:09:47.029Z,96.50
2023-03-27T15:12:15.099Z,97.60
2023-03-27T15:14:43.144Z,98.30
2023-03-27T15:17:17.714Z,97.60
2023-03-27T15:19:49.151Z,97.10
2023-03-27T15:22:23.775Z,96.90
2023-03-27T15:24:56.338Z,97.70
2023-03-27T15:27:27.806Z,97.50
2023-03-27T15:29:58.568Z,98.70
2023-03-27T15:32:32.750Z,98.70
2023-03-27T15:35:05.313Z,98.70
2023-03-27T15:37:35.059Z,99.10
2023-03-27T15:40:28.531Z,99.80
2023-03-27T15:43:04.814Z,99.90
2023-03-27T15:45:40.002Z,99.90
2023-03-27T15:48:24.685Z,99.90
2023-03-27T15:50:56.885Z,99.90
2023-03-27T15:53:32.646Z,99.90
2023-03-27T15:56:03.208Z,99.90
2023-03-27T15:58:41.056Z,99.50
2023-03-27T16:01:19.137Z,98.60
2023-03-27T16:03:51.595Z,98.60
2023-03-27T16:06:30.746Z,98.50
2023-03-27T16:08:59.818Z,98.70
2023-03-27T16:11:36.801Z,98.60
2023-03-27T16:14:04.978Z,98.20
2023-03-27T16:16:34.868Z,98.20
2023-03-27T16:19:12.041Z,98.40
2023-03-27T16:21:54.104Z,97.70
2023-03-27T16:24:22.366Z,97.30
2023-03-27T16:26:52.214Z,96.50
2023-03-27T16:29:21.855Z,96.70
2023-03-27T16:31:49.920Z,96.80
2023-03-27T16:34:23.295Z,96.50
2023-03-27T16:36:52.387Z,97.00
2023-03-27T16:39:20.611Z,96.50
2023-03-27T16:41:48.746Z,96.80
2023-03-27T16:44:17.203Z,96.90
2023-03-27T16:46:46.502Z,97.50
2023-03-27T16:49:14.620Z,97.70
2023-03-27T16:51:44.057Z,98.00
2023-03-27T16:54:12.251Z,98.50
2023-03-27T16:56:40.425Z,99.00
2023-03-27T16:59:08.508Z,99.50
2023-03-27T17:01:36.636Z,99.90
2023-03-27T17:04:04.816Z,99.90
2023-03-27T17:06:33.351Z,99.70
2023-03-27T17:09:02.812Z,98.60
2023-03-27T17:11:30.957Z,98.00
2023-03-27T17:13:59.055Z,97.50
2023-03-27T17:16:27.126Z,97.00
2023-03-27T17:18:55.798Z,96.50
2023-03-27T17:21:24.250Z,96.40
2023-03-27T17:23:54.340Z,96.90
2023-03-27T17:26:25.651Z,96.80
2023-03-27T17:28:53.874Z,97.20
2023-03-27T17:31:22.118Z,96.90
2023-03-27T17:33:50.693Z,97.30
2023-03-27T17:36:29.810Z,97.20
2023-03-27T17:39:07.358Z,97.10
2023-03-27T17:41:36.833Z,97.40
2023-03-27T17:44:06.984Z,97.50
2023-03-27T17:46:36.330Z,97.70
2023-03-27T17:49:04.523Z,98.20
2023-03-27T17:51:34.254Z,98.10
2023-03-27T17:54:02.592Z,98.60
2023-03-27T17:56:30.710Z,98.50
2023-03-27T17:59:00.211Z,99.10
2023-03-27T18:01:28.358Z,99.20
2023-03-27T18:03:57.928Z,98.80
2023-03-27T18:06:26.364Z,98.40
2023-03-27T18:08:54.435Z,98.20
2023-03-27T18:11:22.804Z,98.20
2023-03-27T18:13:53.682Z,98.30
2023-03-27T18:16:23.441Z,98.30
2023-03-27T18:18:55.508Z,98.50
2023-03-27T18:21:23.652Z,98.40
2023-03-27T18:23:53.895Z,98.50
2023-03-27T18:26:22.129Z,98.70
2023-03-27T18:28:50.220Z,98.90
2023-03-27T18:31:18.863Z,98.80
2023-03-27T18:33:48.311Z,99.20
2023-03-27T18:36:16.969Z,99.20
2023-03-27T18:38:46.300Z,99.70
2023-03-27T18:41:15.582Z,99.70
2023-03-27T18:43:44.430Z,99.80
2023-03-27T18:46:16.936Z,99.90
2023-03-27T18:48:46.143Z,99.90
2023-03-27T18:51:17.585Z,99.90
2023-03-27T18:53:45.834Z,99.90
2023-03-27T18:56:13.987Z,99.90
2023-03-27T18:58:49.126Z,99.90
2023-03-27T19:01:17.655Z,99.90
2023-03-27T19:03:45.830Z,99.90
2023-03-27T19:06:15.319Z,99.90
2023-03-27T19:08:45.864Z,99.90
2023-03-27T19:11:14.069Z,99.90
2023-03-27T19:13:42.183Z,99.90
2023-03-27T19:16:14.611Z,99.90
2023-03-27T19:18:43.731Z,99.90
2023-03-27T19:21:11.871Z,99.90
2023-03-27T19:23:41.356Z,99.90
2023-03-27T19:26:11.078Z,99.90
2023-03-27T19:28:39.930Z,99.90
2023-03-27T19:31:08.330Z,99.90
2023-03-27T19:33:36.572Z,99.90
2023-03-27T19:36:04.929Z,99.90
2023-03-27T19:38:33.861Z,99.90
2023-03-27T19:41:04.434Z,99.90
2023-03-27T19:43:32.562Z,99.90
2023-03-27T19:46:14.974Z,99.90
2023-03-27T19:48:44.455Z,99.90
2023-03-27T19:51:12.552Z,99.90
2023-03-27T19:53:41.845Z,99.90
2023-03-27T19:56:11.255Z,99.90
2023-03-27T19:58:39.392Z,99.90
2023-03-27T20:01:07.573Z,99.90
2023-03-27T20:03:38.686Z,99.90
2023-03-27T20:06:12.961Z,99.90
2023-03-27T20:08:42.641Z,99.90
2023-03-27T20:11:12.350Z,99.90
2023-03-27T20:13:52.911Z,99.90
2023-03-27T20:16:26.421Z,99.90
2023-03-27T20:19:03.383Z,99.90
2023-03-27T20:21:33.761Z,99.90
2023-03-27T20:24:02.276Z,99.90
2023-03-27T20:26:38.968Z,99.90
2023-03-27T20:29:08.353Z,99.90
2023-03-27T20:31:36.887Z,99.90
2023-03-27T20:34:06.709Z,99.90
2023-03-27T20:36:35.853Z,99.90
2023-03-27T20:39:08.009Z,99.90
2023-03-27T20:41:39.221Z,99.90
2023-03-27T20:44:14.862Z,99.90
2023-03-27T20:46:47.521Z,99.90
2023-03-27T20:49:37.725Z,99.90
2023-03-27T20:52:09.933Z,99.90
2023-03-27T20:54:38.500Z,99.90
2023-03-27T20:57:08.113Z,99.90
2023-03-27T20:59:36.622Z,99.90
2023-03-27T21:02:06.692Z,99.90
2023-03-27T21:04:34.866Z,99.90
2023-03-27T21:07:02.969Z,99.90
2023-03-27T21:09:31.002Z,99.90
2023-03-27T21:12:01.119Z,99.90
2023-03-27T21:14:30.722Z,99.90
2023-03-27T21:16:58.836Z,99.90
2023-03-27T21:19:27.032Z,99.90
2023-03-27T21:21:55.340Z,99.90
2023-03-27T21:24:23.436Z,99.90
2023-03-27T21:26:51.468Z,99.90
2023-03-27T21:29:20.952Z,99.90
2023-03-27T21:31:50.521Z,99.90
2023-03-27T21:34:18.658Z,99.90
2023-03-27T21:36:46.795Z,99.90
2023-03-27T21:39:14.836Z,99.90
2023-03-27T21:41:43.132Z,99.90
2023-03-27T21:44:11.161Z,99.90
2023-03-27T21:46:39.375Z,99.90
2023-03-27T21:49:08.919Z,99.90
2023-03-27T21:51:37.119Z,99.90
2023-03-27T21:54:05.544Z,99.90
2023-03-27T21:56:33.971Z,99.90
2023-03-27T21:59:01.997Z,99.90
2023-03-27T22:01:30.055Z,99.90
2023-03-27T22:04:02.005Z,99.90
2023-03-27T22:06:31.714Z,99.90
2023-03-27T22:08:59.736Z,99.90
2023-03-27T22:11:28.814Z,99.90
2023-03-27T22:13:56.880Z,99.90
2023-03-27T22:16:25.079Z,99.90
2023-03-27T22:18:53.115Z,99.90
2023-03-27T22:21:23.916Z,99.90
2023-03-27T22:23:55.471Z,99.90
2023-03-27T22:26:25.599Z,99.90
2023-03-27T22:28:53.703Z,99.90
2023-03-27T22:31:22.544Z,99.90
2023-03-27T22:33:51.382Z,99.90
2023-03-27T22:36:20.146Z,99.90
2023-03-27T22:38:48.457Z,99.90
2023-03-27T22:41:18.280Z,99.90
2023-03-27T22:43:49.300Z,99.90
2023-03-27T22:46:20.245Z,99.90
2023-03-27T22:48:48.748Z,99.90
2023-03-27T22:51:16.772Z,99.90
2023-03-27T22:53:44.742Z,99.90
2023-03-27T22:56:12.807Z,99.90
2023-03-27T22:58:42.302Z,99.90
2023-03-27T23:01:10.636Z,99.90
2023-03-27T23:03:39.210Z,99.90
2023-03-27T23:06:07.967Z,99.90
2023-03-27T23:08:36.012Z,99.90
2023-03-27T23:11:06.721Z,99.90
2023-03-27T23:13:36.440Z,99.90
2023-03-27T23:16:06.582Z,99.90
2023-03-27T23:18:34.565Z,99.90
2023-03-27T23:21:04.320Z,99.90
2023-03-27T23:23:33.642Z,99.90
2023-03-27T23:26:02.971Z,99.90
2023-03-27T23:28:33.109Z,99.90
2023-03-27T23:31:03.049Z,99.90
2023-03-27T23:33:35.882Z,99.90
2023-03-27T23:36:07.342Z,99.90
2023-03-27T23:38:35.890Z,99.90
2023-03-27T23:41:04.691Z,99.90
2023-03-27T23:43:33.416Z,99.90
2023-03-27T23:46:01.698Z,99.90
2023-03-27T23:48:32.475Z,99.90
2023-03-27T23:51:00.508Z,99.90
2023-03-27T23:53:29.450Z,99.90
2023-03-27T23:55:59.530Z,99.90
2023-03-27T23:58:32.144Z,99.90
